sensor_id;sensor_type;location;lat;lon;timestamp;pressure;altitude;pressure_sealevel;temperature
19666;BMP180;9980;51.020;7.772;2023-04-07T00:01:38;97327.00;;;11.30
19666;BMP180;9980;51.020;7.772;2023-04-07T00:04:05;97316.00;;;11.30
19666;BMP180;9980;51.020;7.772;2023-04-07T00:06:32;97309.00;;;11.30
19666;BMP180;9980;51.020;7.772;2023-04-07T00:08:59;97325.00;;;11.30
19666;BMP180;9980;51.020;7.772;2023-04-07T00:11:26;97310.00;;;11.30
19666;BMP180;9980;51.020;7.772;2023-04-07T00:13:53;97328.00;;;11.30
19666;BMP180;9980;51.020;7.772;2023-04-07T00:16:20;97315.00;;;11.30
19666;BMP180;9980;51.020;7.772;2023-04-07T00:18:47;97307.00;;;11.30
19666;BMP180;9980;51.020;7.772;2023-04-07T00:21:14;97315.00;;;11.30
19666;BMP180;9980;51.020;7.772;2023-04-07T00:23:41;97315.00;;;11.30
19666;BMP180;9980;51.020;7.772;2023-04-07T00:26:08;97300.00;;;11.30
19666;BMP180;9980;51.020;7.772;2023-04-07T00:28:36;97294.00;;;11.40
19666;BMP180;9980;51.020;7.772;2023-04-07T00:31:03;97310.00;;;11.40
19666;BMP180;9980;51.020;7.772;2023-04-07T00:33:30;97291.00;;;11.30
19666;BMP180;9980;51.020;7.772;2023-04-07T00:35:57;97312.00;;;11.40
19666;BMP180;9980;51.020;7.772;2023-04-07T00:38:24;97310.00;;;11.40
19666;BMP180;9980;51.020;7.772;2023-04-07T00:40:59;97307.00;;;11.40
19666;BMP180;9980;51.020;7.772;2023-04-07T00:43:26;97297.00;;;11.40
19666;BMP180;9980;51.020;7.772;2023-04-07T00:45:53;97293.00;;;11.40
19666;BMP180;9980;51.020;7.772;2023-04-07T00:48:21;97295.00;;;11.40
19666;BMP180;9980;51.020;7.772;2023-04-07T00:50:48;97296.00;;;11.40
19666;BMP180;9980;51.020;7.772;2023-04-07T00:53:15;97287.00;;;11.40
19666;BMP180;9980;51.020;7.772;2023-04-07T00:55:42;97286.00;;;11.40
19666;BMP180;9980;51.020;7.772;2023-04-07T00:58:09;97293.00;;;11.40
19666;BMP180;9980;51.020;7.772;2023-04-07T01:00:49;97287.00;;;11.40
19666;BMP180;9980;51.020;7.772;2023-04-07T01:03:44;97294.00;;;11.40
19666;BMP180;9980;51.020;7.772;2023-04-07T01:06:17;97289.00;;;11.40
19666;BMP180;9980;51.020;7.772;2023-04-07T01:09:04;97286.00;;;11.40
19666;BMP180;9980;51.020;7.772;2023-04-07T01:12:07;97287.00;;;11.40
19666;BMP180;9980;51.020;7.772;2023-04-07T01:14:41;97278.00;;;11.40
19666;BMP180;9980;51.020;7.772;2023-04-07T01:17:42;97274.00;;;11.40
19666;BMP180;9980;51.020;7.772;2023-04-07T01:20:16;97279.00;;;11.40
19666;BMP180;9980;51.020;7.772;2023-04-07T01:22:56;97266.00;;;11.40
19666;BMP180;9980;51.020;7.772;2023-04-07T01:25:53;97265.00;;;11.40
19666;BMP180;9980;51.020;7.772;2023-04-07T01:28:43;97268.00;;;11.40
19666;BMP180;9980;51.020;7.772;2023-04-07T01:31:16;97260.00;;;11.40
19666;BMP180;9980;51.020;7.772;2023-04-07T01:33:45;97254.00;;;11.40
19666;BMP180;9980;51.020;7.772;2023-04-07T01:36:14;97273.00;;;11.40
19666;BMP180;9980;51.020;7.772;2023-04-07T01:38:44;97259.00;;;11.40
19666;BMP180;9980;51.020;7.772;2023-04-07T01:41:14;97256.00;;;11.40
19666;BMP180;9980;51.020;7.772;2023-04-07T01:43:42;97252.00;;;11.40
19666;BMP180;9980;51.020;7.772;2023-04-07T01:46:12;97259.00;;;11.40
19666;BMP180;9980;51.020;7.772;2023-04-07T01:48:39;97269.00;;;11.40
19666;BMP180;9980;51.020;7.772;2023-04-07T01:51:07;97261.00;;;11.40
19666;BMP180;9980;51.020;7.772;2023-04-07T01:53:34;97253.00;;;11.40
19666;BMP180;9980;51.020;7.772;2023-04-07T01:56:05;97265.00;;;11.40
19666;BMP180;9980;51.020;7.772;2023-04-07T01:58:34;97253.00;;;11.40
19666;BMP180;9980;51.020;7.772;2023-04-07T02:01:03;97244.00;;;11.40
19666;BMP180;9980;51.020;7.772;2023-04-07T02:03:42;97241.00;;;11.40
19666;BMP180;9980;51.020;7.772;2023-04-07T02:06:14;97256.00;;;11.40
19666;BMP180;9980;51.020;7.772;2023-04-07T02:08:49;97237.00;;;11.40
19666;BMP180;9980;51.020;7.772;2023-04-07T02:11:20;97256.00;;;11.40
19666;BMP180;9980;51.020;7.772;2023-04-07T02:13:54;97240.00;;;11.50
19666;BMP180;9980;51.020;7.772;2023-04-07T02:16:24;97243.00;;;11.40
19666;BMP180;9980;51.020;7.772;2023-04-07T02:18:53;97245.00;;;11.50
19666;BMP180;9980;51.020;7.772;2023-04-07T02:21:20;97239.00;;;11.50
19666;BMP180;9980;51.020;7.772;2023-04-07T02:23:48;97234.00;;;11.50
19666;BMP180;9980;51.020;7.772;2023-04-07T02:26:15;97244.00;;;11.50
19666;BMP180;9980;51.020;7.772;2023-04-07T02:28:42;97240.00;;;11.50
19666;BMP180;9980;51.020;7.772;2023-04-07T02:31:09;97239.00;;;11.50
19666;BMP180;9980;51.020;7.772;2023-04-07T02:33:36;97243.00;;;11.50
19666;BMP180;9980;51.020;7.772;2023-04-07T02:36:04;97233.00;;;11.40
19666;BMP180;9980;51.020;7.772;2023-04-07T02:38:31;97233.00;;;11.40
19666;BMP180;9980;51.020;7.772;2023-04-07T02:40:58;97233.00;;;11.40
19666;BMP180;9980;51.020;7.772;2023-04-07T02:43:28;97236.00;;;11.40
19666;BMP180;9980;51.020;7.772;2023-04-07T02:45:55;97234.00;;;11.40
19666;BMP180;9980;51.020;7.772;2023-04-07T02:48:22;97246.00;;;11.40
19666;BMP180;9980;51.020;7.772;2023-04-07T02:50:49;97258.00;;;11.40
19666;BMP180;9980;51.020;7.772;2023-04-07T02:53:16;97229.00;;;11.40
19666;BMP180;9980;51.020;7.772;2023-04-07T02:55:43;97235.00;;;11.40
19666;BMP180;9980;51.020;7.772;2023-04-07T02:58:10;97235.00;;;11.40
19666;BMP180;9980;51.020;7.772;2023-04-07T03:00:41;97230.00;;;11.40
19666;BMP180;9980;51.020;7.772;2023-04-07T03:03:20;97233.00;;;11.40
19666;BMP180;9980;51.020;7.772;2023-04-07T03:06:04;97244.00;;;11.40
19666;BMP180;9980;51.020;7.772;2023-04-07T03:08:34;97225.00;;;11.40
19666;BMP180;9980;51.020;7.772;2023-04-07T03:11:01;97233.00;;;11.40
19666;BMP180;9980;51.020;7.772;2023-04-07T03:13:29;97242.00;;;11.40
19666;BMP180;9980;51.020;7.772;2023-04-07T03:15:57;97237.00;;;11.40
19666;BMP180;9980;51.020;7.772;2023-04-07T03:18:27;97227.00;;;11.40
19666;BMP180;9980;51.020;7.772;2023-04-07T03:20:59;97229.00;;;11.40
19666;BMP180;9980;51.020;7.772;2023-04-07T03:23:26;97232.00;;;11.40
19666;BMP180;9980;51.020;7.772;2023-04-07T03:25:56;97240.00;;;11.40
19666;BMP180;9980;51.020;7.772;2023-04-07T03:28:28;97252.00;;;11.40
19666;BMP180;9980;51.020;7.772;2023-04-07T03:30:54;97233.00;;;11.40
19666;BMP180;9980;51.020;7.772;2023-04-07T03:33:22;97238.00;;;11.40
19666;BMP180;9980;51.020;7.772;2023-04-07T03:35:49;97239.00;;;11.40
19666;BMP180;9980;51.020;7.772;2023-04-07T03:38:16;97235.00;;;11.50
19666;BMP180;9980;51.020;7.772;2023-04-07T03:40:42;97242.00;;;11.50
19666;BMP180;9980;51.020;7.772;2023-04-07T03:43:09;97238.00;;;11.50
19666;BMP180;9980;51.020;7.772;2023-04-07T03:45:41;97238.00;;;11.50
19666;BMP180;9980;51.020;7.772;2023-04-07T03:48:09;97242.00;;;11.50
19666;BMP180;9980;51.020;7.772;2023-04-07T03:50:45;97238.00;;;11.50
19666;BMP180;9980;51.020;7.772;2023-04-07T03:53:15;97240.00;;;11.50
19666;BMP180;9980;51.020;7.772;2023-04-07T03:55:44;97235.00;;;11.50
19666;BMP180;9980;51.020;7.772;2023-04-07T03:58:19;97237.00;;;11.50
19666;BMP180;9980;51.020;7.772;2023-04-07T04:00:47;97241.00;;;11.50
19666;BMP180;9980;51.020;7.772;2023-04-07T04:03:15;97245.00;;;11.50
19666;BMP180;9980;51.020;7.772;2023-04-07T04:05:59;97234.00;;;11.50
19666;BMP180;9980;51.020;7.772;2023-04-07T04:08:29;97235.00;;;11.50
19666;BMP180;9980;51.020;7.772;2023-04-07T04:10:56;97247.00;;;11.50
19666;BMP180;9980;51.020;7.772;2023-04-07T04:13:28;97242.00;;;11.50
19666;BMP180;9980;51.020;7.772;2023-04-07T04:15:57;97240.00;;;11.50
19666;BMP180;9980;51.020;7.772;2023-04-07T04:18:25;97242.00;;;11.50
19666;BMP180;9980;51.020;7.772;2023-04-07T04:20:53;97244.00;;;11.40
19666;BMP180;9980;51.020;7.772;2023-04-07T04:23:20;97236.00;;;11.40
19666;BMP180;9980;51.020;7.772;2023-04-07T04:25:50;97234.00;;;11.40
19666;BMP180;9980;51.020;7.772;2023-04-07T04:28:17;97242.00;;;11.40
19666;BMP180;9980;51.020;7.772;2023-04-07T04:30:44;97244.00;;;11.40
19666;BMP180;9980;51.020;7.772;2023-04-07T04:33:11;97235.00;;;11.40
19666;BMP180;9980;51.020;7.772;2023-04-07T04:35:46;97239.00;;;11.40
19666;BMP180;9980;51.020;7.772;2023-04-07T04:38:16;97244.00;;;11.40
19666;BMP180;9980;51.020;7.772;2023-04-07T04:40:49;97254.00;;;11.40
19666;BMP180;9980;51.020;7.772;2023-04-07T04:43:23;97239.00;;;11.40
19666;BMP180;9980;51.020;7.772;2023-04-07T04:45:50;97243.00;;;11.40
19666;BMP180;9980;51.020;7.772;2023-04-07T04:48:21;97232.00;;;11.40
19666;BMP180;9980;51.020;7.772;2023-04-07T04:50:48;97245.00;;;11.40
19666;BMP180;9980;51.020;7.772;2023-04-07T04:53:15;97243.00;;;11.40
19666;BMP180;9980;51.020;7.772;2023-04-07T04:55:50;97256.00;;;11.40
19666;BMP180;9980;51.020;7.772;2023-04-07T04:58:23;97252.00;;;11.40
19666;BMP180;9980;51.020;7.772;2023-04-07T05:00:54;97242.00;;;11.40
19666;BMP180;9980;51.020;7.772;2023-04-07T05:03:33;97259.00;;;11.40
19666;BMP180;9980;51.020;7.772;2023-04-07T05:06:10;97243.00;;;11.40
19666;BMP180;9980;51.020;7.772;2023-04-07T05:08:40;97247.00;;;11.40
19666;BMP180;9980;51.020;7.772;2023-04-07T05:11:08;97262.00;;;11.40
19666;BMP180;9980;51.020;7.772;2023-04-07T05:13:35;97259.00;;;11.40
19666;BMP180;9980;51.020;7.772;2023-04-07T05:16:04;97260.00;;;11.40
19666;BMP180;9980;51.020;7.772;2023-04-07T05:18:31;97258.00;;;11.40
19666;BMP180;9980;51.020;7.772;2023-04-07T05:20:59;97272.00;;;11.50
19666;BMP180;9980;51.020;7.772;2023-04-07T05:23:28;97268.00;;;11.50
19666;BMP180;9980;51.020;7.772;2023-04-07T05:25:55;97278.00;;;11.50
19666;BMP180;9980;51.020;7.772;2023-04-07T05:28:22;97264.00;;;11.50
19666;BMP180;9980;51.020;7.772;2023-04-07T05:30:52;97273.00;;;11.50
19666;BMP180;9980;51.020;7.772;2023-04-07T05:33:23;97270.00;;;11.50
19666;BMP180;9980;51.020;7.772;2023-04-07T05:35:52;97282.00;;;11.50
19666;BMP180;9980;51.020;7.772;2023-04-07T05:38:19;97279.00;;;11.50
19666;BMP180;9980;51.020;7.772;2023-04-07T05:40:47;97284.00;;;11.60
19666;BMP180;9980;51.020;7.772;2023-04-07T05:43:21;97278.00;;;11.60
19666;BMP180;9980;51.020;7.772;2023-04-07T05:45:48;97289.00;;;11.60
19666;BMP180;9980;51.020;7.772;2023-04-07T05:48:15;97297.00;;;11.60
19666;BMP180;9980;51.020;7.772;2023-04-07T05:50:45;97282.00;;;11.60
19666;BMP180;9980;51.020;7.772;2023-04-07T05:53:15;97290.00;;;11.60
19666;BMP180;9980;51.020;7.772;2023-04-07T05:55:42;97279.00;;;11.60
19666;BMP180;9980;51.020;7.772;2023-04-07T05:58:13;97289.00;;;11.60
19666;BMP180;9980;51.020;7.772;2023-04-07T06:00:46;97290.00;;;11.60
19666;BMP180;9980;51.020;7.772;2023-04-07T06:03:15;97309.00;;;11.60
19666;BMP180;9980;51.020;7.772;2023-04-07T06:06:03;97296.00;;;11.60
19666;BMP180;9980;51.020;7.772;2023-04-07T06:08:30;97287.00;;;11.60
19666;BMP180;9980;51.020;7.772;2023-04-07T06:10:57;97289.00;;;11.60
19666;BMP180;9980;51.020;7.772;2023-04-07T06:13:23;97297.00;;;11.60
19666;BMP180;9980;51.020;7.772;2023-04-07T06:15:54;97295.00;;;11.60
19666;BMP180;9980;51.020;7.772;2023-04-07T06:18:22;97287.00;;;11.60
19666;BMP180;9980;51.020;7.772;2023-04-07T06:20:49;97284.00;;;11.60
19666;BMP180;9980;51.020;7.772;2023-04-07T06:23:15;97294.00;;;11.60
19666;BMP180;9980;51.020;7.772;2023-04-07T06:25:42;97296.00;;;11.60
19666;BMP180;9980;51.020;7.772;2023-04-07T06:28:10;97308.00;;;11.60
19666;BMP180;9980;51.020;7.772;2023-04-07T06:30:37;97305.00;;;11.70
19666;BMP180;9980;51.020;7.772;2023-04-07T06:33:07;97306.00;;;11.70
19666;BMP180;9980;51.020;7.772;2023-04-07T06:35:34;97293.00;;;11.70
19666;BMP180;9980;51.020;7.772;2023-04-07T06:38:01;97299.00;;;11.70
19666;BMP180;9980;51.020;7.772;2023-04-07T06:40:28;97291.00;;;11.70
19666;BMP180;9980;51.020;7.772;2023-04-07T06:42:55;97308.00;;;11.70
19666;BMP180;9980;51.020;7.772;2023-04-07T06:45:28;97296.00;;;11.70
19666;BMP180;9980;51.020;7.772;2023-04-07T06:47:55;97303.00;;;11.70
19666;BMP180;9980;51.020;7.772;2023-04-07T06:50:21;97310.00;;;11.80
19666;BMP180;9980;51.020;7.772;2023-04-07T06:52:48;97305.00;;;11.80
19666;BMP180;9980;51.020;7.772;2023-04-07T06:55:15;97310.00;;;11.80
19666;BMP180;9980;51.020;7.772;2023-04-07T06:57:42;97316.00;;;11.90
19666;BMP180;9980;51.020;7.772;2023-04-07T07:00:09;97310.00;;;11.90
19666;BMP180;9980;51.020;7.772;2023-04-07T07:02:37;97313.00;;;11.90
19666;BMP180;9980;51.020;7.772;2023-04-07T07:05:05;97324.00;;;11.90
19666;BMP180;9980;51.020;7.772;2023-04-07T07:07:32;97314.00;;;11.90
19666;BMP180;9980;51.020;7.772;2023-04-07T07:09:59;97310.00;;;11.90
19666;BMP180;9980;51.020;7.772;2023-04-07T07:12:26;97305.00;;;12.00
19666;BMP180;9980;51.020;7.772;2023-04-07T07:14:53;97307.00;;;12.00
19666;BMP180;9980;51.020;7.772;2023-04-07T07:17:20;97314.00;;;12.00
19666;BMP180;9980;51.020;7.772;2023-04-07T07:19:46;97331.00;;;12.00
19666;BMP180;9980;51.020;7.772;2023-04-07T07:22:13;97340.00;;;12.00
19666;BMP180;9980;51.020;7.772;2023-04-07T07:24:40;97331.00;;;12.00
19666;BMP180;9980;51.020;7.772;2023-04-07T07:27:07;97318.00;;;12.10
19666;BMP180;9980;51.020;7.772;2023-04-07T07:29:34;97333.00;;;12.10
19666;BMP180;9980;51.020;7.772;2023-04-07T07:32:01;97326.00;;;12.10
19666;BMP180;9980;51.020;7.772;2023-04-07T07:34:28;97333.00;;;12.10
19666;BMP180;9980;51.020;7.772;2023-04-07T07:36:55;97328.00;;;12.10
19666;BMP180;9980;51.020;7.772;2023-04-07T07:39:22;97337.00;;;12.20
19666;BMP180;9980;51.020;7.772;2023-04-07T07:41:49;97348.00;;;12.20
19666;BMP180;9980;51.020;7.772;2023-04-07T07:44:16;97335.00;;;12.20
19666;BMP180;9980;51.020;7.772;2023-04-07T07:46:45;97341.00;;;12.20
19666;BMP180;9980;51.020;7.772;2023-04-07T07:49:12;97352.00;;;12.20
19666;BMP180;9980;51.020;7.772;2023-04-07T07:51:39;97342.00;;;12.20
19666;BMP180;9980;51.020;7.772;2023-04-07T07:54:06;97347.00;;;12.20
19666;BMP180;9980;51.020;7.772;2023-04-07T07:56:33;97350.00;;;12.20
19666;BMP180;9980;51.020;7.772;2023-04-07T07:59:00;97354.00;;;12.20
19666;BMP180;9980;51.020;7.772;2023-04-07T08:01:27;97367.00;;;12.30
19666;BMP180;9980;51.020;7.772;2023-04-07T08:03:54;97359.00;;;12.30
19666;BMP180;9980;51.020;7.772;2023-04-07T08:06:21;97359.00;;;12.30
19666;BMP180;9980;51.020;7.772;2023-04-07T08:08:48;97360.00;;;12.30
19666;BMP180;9980;51.020;7.772;2023-04-07T08:11:15;97363.00;;;12.40
19666;BMP180;9980;51.020;7.772;2023-04-07T08:13:42;97348.00;;;12.40
19666;BMP180;9980;51.020;7.772;2023-04-07T08:16:13;97366.00;;;12.40
19666;BMP180;9980;51.020;7.772;2023-04-07T08:18:40;97365.00;;;12.50
19666;BMP180;9980;51.020;7.772;2023-04-07T08:21:07;97367.00;;;12.60
19666;BMP180;9980;51.020;7.772;2023-04-07T08:23:33;97371.00;;;12.60
19666;BMP180;9980;51.020;7.772;2023-04-07T08:26:00;97378.00;;;12.60
19666;BMP180;9980;51.020;7.772;2023-04-07T08:28:27;97385.00;;;12.60
19666;BMP180;9980;51.020;7.772;2023-04-07T08:30:54;97379.00;;;12.70
19666;BMP180;9980;51.020;7.772;2023-04-07T08:33:21;97372.00;;;12.70
19666;BMP180;9980;51.020;7.772;2023-04-07T08:35:48;97380.00;;;12.70
19666;BMP180;9980;51.020;7.772;2023-04-07T08:38:15;97371.00;;;12.70
19666;BMP180;9980;51.020;7.772;2023-04-07T08:40:41;97369.00;;;12.80
19666;BMP180;9980;51.020;7.772;2023-04-07T08:43:09;97376.00;;;12.80
19666;BMP180;9980;51.020;7.772;2023-04-07T08:45:40;97378.00;;;12.80
19666;BMP180;9980;51.020;7.772;2023-04-07T08:48:17;97376.00;;;12.80
19666;BMP180;9980;51.020;7.772;2023-04-07T08:50:45;97386.00;;;12.80
19666;BMP180;9980;51.020;7.772;2023-04-07T08:53:12;97387.00;;;12.90
19666;BMP180;9980;51.020;7.772;2023-04-07T08:55:42;97394.00;;;12.90
19666;BMP180;9980;51.020;7.772;2023-04-07T08:58:09;97383.00;;;12.90
19666;BMP180;9980;51.020;7.772;2023-04-07T09:00:40;97388.00;;;12.90
19666;BMP180;9980;51.020;7.772;2023-04-07T09:03:09;97378.00;;;12.90
19666;BMP180;9980;51.020;7.772;2023-04-07T09:05:38;97388.00;;;12.90
19666;BMP180;9980;51.020;7.772;2023-04-07T09:08:05;97385.00;;;12.90
19666;BMP180;9980;51.020;7.772;2023-04-07T09:10:32;97399.00;;;12.90
19666;BMP180;9980;51.020;7.772;2023-04-07T09:12:59;97396.00;;;12.90
19666;BMP180;9980;51.020;7.772;2023-04-07T09:15:30;97391.00;;;12.90
19666;BMP180;9980;51.020;7.772;2023-04-07T09:17:58;97402.00;;;13.00
19666;BMP180;9980;51.020;7.772;2023-04-07T09:20:25;97388.00;;;13.00
19666;BMP180;9980;51.020;7.772;2023-04-07T09:22:52;97409.00;;;13.00
19666;BMP180;9980;51.020;7.772;2023-04-07T09:25:23;97397.00;;;13.00
19666;BMP180;9980;51.020;7.772;2023-04-07T09:28:01;97407.00;;;13.00
19666;BMP180;9980;51.020;7.772;2023-04-07T09:30:32;97411.00;;;13.10
19666;BMP180;9980;51.020;7.772;2023-04-07T09:33:00;97407.00;;;13.10
19666;BMP180;9980;51.020;7.772;2023-04-07T09:35:28;97409.00;;;13.10
19666;BMP180;9980;51.020;7.772;2023-04-07T09:38:07;97403.00;;;13.10
19666;BMP180;9980;51.020;7.772;2023-04-07T09:40:35;97399.00;;;13.10
19666;BMP180;9980;51.020;7.772;2023-04-07T09:43:04;97415.00;;;13.20
19666;BMP180;9980;51.020;7.772;2023-04-07T09:45:32;97408.00;;;13.20
19666;BMP180;9980;51.020;7.772;2023-04-07T09:48:17;97402.00;;;13.20
19666;BMP180;9980;51.020;7.772;2023-04-07T09:50:45;97407.00;;;13.20
19666;BMP180;9980;51.020;7.772;2023-04-07T09:53:15;97403.00;;;13.20
19666;BMP180;9980;51.020;7.772;2023-04-07T09:55:43;97416.00;;;13.30
19666;BMP180;9980;51.020;7.772;2023-04-07T09:58:13;97416.00;;;13.30
19666;BMP180;9980;51.020;7.772;2023-04-07T10:00:42;97409.00;;;13.30
19666;BMP180;9980;51.020;7.772;2023-04-07T10:03:09;97409.00;;;13.30
19666;BMP180;9980;51.020;7.772;2023-04-07T10:05:38;97415.00;;;13.30
19666;BMP180;9980;51.020;7.772;2023-04-07T10:08:05;97411.00;;;13.30
19666;BMP180;9980;51.020;7.772;2023-04-07T10:10:33;97409.00;;;13.40
19666;BMP180;9980;51.020;7.772;2023-04-07T10:13:04;97415.00;;;13.40
19666;BMP180;9980;51.020;7.772;2023-04-07T10:15:32;97423.00;;;13.40
19666;BMP180;9980;51.020;7.772;2023-04-07T10:18:00;97425.00;;;13.50
19666;BMP180;9980;51.020;7.772;2023-04-07T10:20:30;97426.00;;;13.50
19666;BMP180;9980;51.020;7.772;2023-04-07T10:23:10;97433.00;;;13.50
19666;BMP180;9980;51.020;7.772;2023-04-07T10:25:39;97428.00;;;13.60
19666;BMP180;9980;51.020;7.772;2023-04-07T10:28:09;97431.00;;;13.60
19666;BMP180;9980;51.020;7.772;2023-04-07T10:30:39;97438.00;;;13.70
19666;BMP180;9980;51.020;7.772;2023-04-07T10:33:06;97428.00;;;13.70
19666;BMP180;9980;51.020;7.772;2023-04-07T10:36:07;97444.00;;;13.70
19666;BMP180;9980;51.020;7.772;2023-04-07T10:38:34;97432.00;;;13.70
19666;BMP180;9980;51.020;7.772;2023-04-07T10:41:37;97444.00;;;13.70
19666;BMP180;9980;51.020;7.772;2023-04-07T10:44:09;97445.00;;;13.80
19666;BMP180;9980;51.020;7.772;2023-04-07T10:47:04;97444.00;;;13.90
19666;BMP180;9980;51.020;7.772;2023-04-07T10:49:33;97444.00;;;13.90
19666;BMP180;9980;51.020;7.772;2023-04-07T10:54:40;97448.00;;;14.00
19666;BMP180;9980;51.020;7.772;2023-04-07T10:57:14;97450.00;;;14.00
19666;BMP180;9980;51.020;7.772;2023-04-07T11:02:38;97456.00;;;14.10
19666;BMP180;9980;51.020;7.772;2023-04-07T11:05:06;97460.00;;;14.10
19666;BMP180;9980;51.020;7.772;2023-04-07T11:07:49;97451.00;;;14.10
19666;BMP180;9980;51.020;7.772;2023-04-07T11:10:16;97457.00;;;14.10
19666;BMP180;9980;51.020;7.772;2023-04-07T11:12:58;97451.00;;;14.10
19666;BMP180;9980;51.020;7.772;2023-04-07T11:15:25;97466.00;;;14.10
19666;BMP180;9980;51.020;7.772;2023-04-07T11:18:21;97462.00;;;14.00
19666;BMP180;9980;51.020;7.772;2023-04-07T11:20:56;97457.00;;;14.00
19666;BMP180;9980;51.020;7.772;2023-04-07T11:23:26;97462.00;;;14.10
19666;BMP180;9980;51.020;7.772;2023-04-07T11:26:01;97463.00;;;14.10
19666;BMP180;9980;51.020;7.772;2023-04-07T11:28:30;97459.00;;;14.10
19666;BMP180;9980;51.020;7.772;2023-04-07T11:30:57;97474.00;;;14.10
19666;BMP180;9980;51.020;7.772;2023-04-07T11:33:30;97476.00;;;14.20
19666;BMP180;9980;51.020;7.772;2023-04-07T11:36:02;97474.00;;;14.20
19666;BMP180;9980;51.020;7.772;2023-04-07T11:38:36;97472.00;;;14.20
19666;BMP180;9980;51.020;7.772;2023-04-07T11:41:13;97474.00;;;14.20
19666;BMP180;9980;51.020;7.772;2023-04-07T11:43:40;97472.00;;;14.20
19666;BMP180;9980;51.020;7.772;2023-04-07T11:46:14;97495.00;;;14.20
19666;BMP180;9980;51.020;7.772;2023-04-07T11:48:44;97495.00;;;14.20
19666;BMP180;9980;51.020;7.772;2023-04-07T11:51:18;97480.00;;;14.20
19666;BMP180;9980;51.020;7.772;2023-04-07T11:53:46;97494.00;;;14.20
19666;BMP180;9980;51.020;7.772;2023-04-07T11:56:15;97488.00;;;14.10
19666;BMP180;9980;51.020;7.772;2023-04-07T11:59:01;97504.00;;;14.10
19666;BMP180;9980;51.020;7.772;2023-04-07T12:01:40;97500.00;;;14.10
19666;BMP180;9980;51.020;7.772;2023-04-07T12:04:12;97510.00;;;14.10
19666;BMP180;9980;51.020;7.772;2023-04-07T12:06:41;97516.00;;;14.10
19666;BMP180;9980;51.020;7.772;2023-04-07T12:09:32;97511.00;;;14.00
19666;BMP180;9980;51.020;7.772;2023-04-07T12:12:03;97509.00;;;14.00
19666;BMP180;9980;51.020;7.772;2023-04-07T12:14:32;97509.00;;;14.00
19666;BMP180;9980;51.020;7.772;2023-04-07T12:16:59;97504.00;;;14.00
19666;BMP180;9980;51.020;7.772;2023-04-07T12:19:31;97522.00;;;14.00
19666;BMP180;9980;51.020;7.772;2023-04-07T12:22:03;97511.00;;;14.00
19666;BMP180;9980;51.020;7.772;2023-04-07T12:24:30;97521.00;;;14.00
19666;BMP180;9980;51.020;7.772;2023-04-07T12:26:58;97524.00;;;14.10
19666;BMP180;9980;51.020;7.772;2023-04-07T12:29:25;97524.00;;;14.10
19666;BMP180;9980;51.020;7.772;2023-04-07T12:31:52;97531.00;;;14.10
19666;BMP180;9980;51.020;7.772;2023-04-07T12:34:19;97533.00;;;14.10
19666;BMP180;9980;51.020;7.772;2023-04-07T12:36:46;97533.00;;;14.10
19666;BMP180;9980;51.020;7.772;2023-04-07T12:39:15;97539.00;;;14.10
19666;BMP180;9980;51.020;7.772;2023-04-07T12:41:42;97527.00;;;14.10
19666;BMP180;9980;51.020;7.772;2023-04-07T12:44:11;97536.00;;;14.20
19666;BMP180;9980;51.020;7.772;2023-04-07T12:46:37;97534.00;;;14.20
19666;BMP180;9980;51.020;7.772;2023-04-07T12:49:04;97533.00;;;14.20
19666;BMP180;9980;51.020;7.772;2023-04-07T12:51:31;97524.00;;;14.20
19666;BMP180;9980;51.020;7.772;2023-04-07T12:54:01;97543.00;;;14.30
19666;BMP180;9980;51.020;7.772;2023-04-07T12:56:28;97529.00;;;14.30
19666;BMP180;9980;51.020;7.772;2023-04-07T12:58:55;97543.00;;;14.30
19666;BMP180;9980;51.020;7.772;2023-04-07T13:01:21;97555.00;;;14.30
19666;BMP180;9980;51.020;7.772;2023-04-07T13:03:48;97534.00;;;14.30
19666;BMP180;9980;51.020;7.772;2023-04-07T13:06:16;97545.00;;;14.30
19666;BMP180;9980;51.020;7.772;2023-04-07T13:08:43;97547.00;;;14.40
19666;BMP180;9980;51.020;7.772;2023-04-07T13:11:10;97549.00;;;14.40
19666;BMP180;9980;51.020;7.772;2023-04-07T13:13:37;97552.00;;;14.40
19666;BMP180;9980;51.020;7.772;2023-04-07T13:16:04;97550.00;;;14.30
19666;BMP180;9980;51.020;7.772;2023-04-07T13:18:31;97558.00;;;14.30
19666;BMP180;9980;51.020;7.772;2023-04-07T13:20:58;97549.00;;;14.20
19666;BMP180;9980;51.020;7.772;2023-04-07T13:23:44;97539.00;;;14.20
19666;BMP180;9980;51.020;7.772;2023-04-07T13:26:12;97554.00;;;14.10
19666;BMP180;9980;51.020;7.772;2023-04-07T13:28:38;97554.00;;;14.10
19666;BMP180;9980;51.020;7.772;2023-04-07T13:31:06;97563.00;;;14.10
19666;BMP180;9980;51.020;7.772;2023-04-07T13:33:33;97567.00;;;14.10
19666;BMP180;9980;51.020;7.772;2023-04-07T13:36:00;97569.00;;;14.10
19666;BMP180;9980;51.020;7.772;2023-04-07T13:38:27;97564.00;;;14.00
19666;BMP180;9980;51.020;7.772;2023-04-07T13:40:54;97559.00;;;14.00
19666;BMP180;9980;51.020;7.772;2023-04-07T13:43:24;97570.00;;;14.00
19666;BMP180;9980;51.020;7.772;2023-04-07T13:45:51;97581.00;;;13.90
19666;BMP180;9980;51.020;7.772;2023-04-07T13:48:17;97574.00;;;13.90
19666;BMP180;9980;51.020;7.772;2023-04-07T13:50:44;97566.00;;;13.90
19666;BMP180;9980;51.020;7.772;2023-04-07T13:53:11;97565.00;;;13.90
19666;BMP180;9980;51.020;7.772;2023-04-07T13:55:38;97577.00;;;13.90
19666;BMP180;9980;51.020;7.772;2023-04-07T13:58:05;97587.00;;;13.90
19666;BMP180;9980;51.020;7.772;2023-04-07T14:00:32;97582.00;;;13.90
19666;BMP180;9980;51.020;7.772;2023-04-07T14:03:01;97585.00;;;13.90
19666;BMP180;9980;51.020;7.772;2023-04-07T14:05:28;97577.00;;;13.90
19666;BMP180;9980;51.020;7.772;2023-04-07T14:07:55;97569.00;;;13.90
19666;BMP180;9980;51.020;7.772;2023-04-07T14:10:22;97571.00;;;14.00
19666;BMP180;9980;51.020;7.772;2023-04-07T14:12:49;97575.00;;;14.00
19666;BMP180;9980;51.020;7.772;2023-04-07T14:15:16;97572.00;;;14.00
19666;BMP180;9980;51.020;7.772;2023-04-07T14:17:44;97572.00;;;14.00
19666;BMP180;9980;51.020;7.772;2023-04-07T14:20:11;97574.00;;;14.10
19666;BMP180;9980;51.020;7.772;2023-04-07T14:22:38;97585.00;;;14.10
19666;BMP180;9980;51.020;7.772;2023-04-07T14:25:06;97565.00;;;14.00
19666;BMP180;9980;51.020;7.772;2023-04-07T14:27:33;97578.00;;;14.00
19666;BMP180;9980;51.020;7.772;2023-04-07T14:30:00;97571.00;;;14.00
19666;BMP180;9980;51.020;7.772;2023-04-07T14:32:27;97579.00;;;14.10
19666;BMP180;9980;51.020;7.772;2023-04-07T14:34:59;97575.00;;;14.10
19666;BMP180;9980;51.020;7.772;2023-04-07T14:37:27;97571.00;;;14.10
19666;BMP180;9980;51.020;7.772;2023-04-07T14:39:54;97566.00;;;14.20
19666;BMP180;9980;51.020;7.772;2023-04-07T14:42:24;97570.00;;;14.20